createdAt,value
2018-01-08T00:06:08.720Z,60.6
2018-01-08T00:21:08.716Z,60.2
2018-01-08T00:41:08.746Z,63.2
2018-01-08T00:56:08.771Z,56.5
2018-01-08T01:11:08.738Z,62.7
2018-01-08T01:31:08.775Z,56.8
2018-01-08T01:46:08.791Z,56.9
2018-01-08T02:01:08.784Z,50.7
2018-01-08T02:16:08.826Z,58.4
2018-01-08T02:36:08.929Z,55.6
2018-01-08T02:51:08.836Z,62.3
2018-01-08T03:26:09.015Z,62.7
2018-01-08T03:41:09.042Z,61.6
2018-01-08T03:56:08.945Z,47.7
2018-01-08T04:11:09.034Z,60.4
2018-01-08T04:31:10.005Z,47.8
2018-01-08T04:46:10.194Z,47.1
2018-01-08T05:01:10.121Z,45.6
2018-01-08T05:21:10.341Z,57.7
2018-01-08T05:36:10.081Z,52.5
2018-01-08T05:51:10.113Z,58.3
2018-01-08T06:07:44.650Z,61.4
2018-01-08T06:26:10.113Z,54.5
2018-01-08T06:41:10.167Z,54.5
2018-01-08T06:56:10.061Z,54.2
2018-01-08T07:16:10.064Z,45.2
2018-01-08T07:31:10.224Z,33.9
2018-01-08T07:46:10.216Z,36.4
2018-01-08T08:01:10.097Z,41.3
2018-01-08T08:21:10.203Z,35.9
2018-01-08T08:36:10.238Z,33.6
2018-01-08T08:51:10.243Z,38.4
2018-01-08T09:11:10.121Z,35
2018-01-08T09:26:10.143Z,33.3
2018-01-08T09:41:10.179Z,31.5
2018-01-08T09:56:10.241Z,28
2018-01-08T10:16:20.439Z,24
2018-01-08T10:31:10.613Z,27
2018-01-08T10:46:10.355Z,28.1
2018-01-08T11:06:10.226Z,26.3
2018-01-08T11:21:10.302Z,28
2018-01-08T11:36:10.356Z,33.2
2018-01-08T11:51:10.222Z,29.7
2018-01-08T12:11:10.272Z,32.5
2018-01-08T12:26:10.298Z,29.4
2018-01-08T12:41:10.299Z,31.9
2018-01-08T13:01:10.327Z,26.8
2018-01-08T13:16:10.354Z,38.1
2018-01-08T13:51:10.477Z,36.3
2018-01-08T14:36:10.372Z,35.1
2018-01-08T14:56:11.725Z,22.2
2018-01-08T15:11:10.172Z,28.1
2018-01-08T15:26:11.870Z,21.6
2018-01-08T15:46:10.225Z,19.7
2018-01-08T16:01:10.338Z,20.3
2018-01-08T16:16:10.639Z,17.8
2018-01-08T16:31:10.164Z,18.1
2018-01-08T16:51:10.248Z,18.9
2018-01-08T17:06:10.233Z,13.6
2018-01-08T17:21:10.886Z,15.4
2018-01-08T17:56:12.054Z,17.8
2018-01-08T18:11:10.381Z,20.2
2018-01-08T18:26:10.400Z,22.3
2018-01-08T18:46:10.568Z,37.6
2018-01-08T19:01:10.378Z,24.5
2018-01-08T19:16:11.722Z,16.9
2018-01-08T19:36:14.148Z,19.4
2018-01-08T19:51:13.922Z,18.4
2018-01-08T20:06:14.321Z,21
2018-01-08T20:21:14.023Z,24.7
2018-01-08T20:41:14.096Z,17.2
2018-01-08T20:56:15.164Z,21.2
2018-01-08T21:31:15.590Z,24
2018-01-08T21:46:17.597Z,14
2018-01-08T22:01:15.181Z,14.1
2018-01-08T22:16:14.289Z,10.3
2018-01-08T22:36:14.153Z,12.3
2018-01-08T22:51:14.391Z,19.1
2018-01-08T23:06:14.252Z,24
2018-01-08T23:26:14.081Z,23.2
2018-01-08T23:41:14.757Z,20.2
2018-01-08T23:56:14.049Z,25.1
